createdAt,value
2022-07-25T00:00:06.905Z,98092.78
2022-07-25T00:01:36.007Z,98094.47
2022-07-25T00:02:45.413Z,98092.54
2022-07-25T00:03:53.893Z,98093.33
2022-07-25T00:05:08.442Z,98091.21
2022-07-25T00:06:17.777Z,98091.30
2022-07-25T00:07:28.699Z,98098.77
2022-07-25T00:08:37.766Z,98096.89
2022-07-25T00:09:47.133Z,98100.77
2022-07-25T00:10:55.679Z,98100.79
2022-07-25T00:12:05.922Z,98095.48
2022-07-25T00:13:15.188Z,98097.89
2022-07-25T00:14:24.176Z,98097.02
2022-07-25T00:15:32.499Z,98098.98
2022-07-25T00:16:41.864Z,98100.02
2022-07-25T00:17:50.780Z,98099.81
2022-07-25T00:18:58.736Z,98097.29
2022-07-25T00:20:07.779Z,98099.75
2022-07-25T00:21:17.107Z,98094.73
2022-07-25T00:22:25.403Z,98095.49
2022-07-25T00:23:35.367Z,98094.84
2022-07-25T00:24:44.511Z,98093.02
2022-07-25T00:25:52.547Z,98088.02
2022-07-25T00:27:01.023Z,98092.06
2022-07-25T00:28:11.166Z,98090.30
2022-07-25T00:29:20.570Z,98091.81
2022-07-25T00:30:29.060Z,98101.10
2022-07-25T00:31:38.358Z,98098.50
2022-07-25T00:32:48.085Z,98100.27
2022-07-25T00:33:57.901Z,98106.73
2022-07-25T00:35:08.016Z,98113.24
2022-07-25T00:36:15.826Z,98113.14
2022-07-25T00:37:25.739Z,98115.08
2022-07-25T00:38:34.012Z,98117.94
2022-07-25T00:39:45.247Z,98119.35
2022-07-25T00:40:55.360Z,98121.52
2022-07-25T00:42:05.436Z,98120.73
2022-07-25T00:43:15.478Z,98116.14
2022-07-25T00:44:31.845Z,98113.08
2022-07-25T00:45:41.644Z,98108.78
2022-07-25T00:46:50.438Z,98111.23
2022-07-25T00:48:02.120Z,98102.84
2022-07-25T00:49:12.338Z,98112.34
2022-07-25T00:50:20.815Z,98108.83
2022-07-25T00:51:31.334Z,98107.13
2022-07-25T00:52:40.857Z,98107.44
2022-07-25T00:53:48.855Z,98111.15
2022-07-25T00:54:58.566Z,98107.77
2022-07-25T00:56:09.513Z,98112.87
2022-07-25T00:57:18.469Z,98117.20
2022-07-25T00:58:27.490Z,98117.70
2022-07-25T00:59:36.830Z,98119.30
2022-07-25T01:00:46.900Z,98117.20
2022-07-25T01:01:56.106Z,98121.63
2022-07-25T01:03:04.100Z,98125.16
2022-07-25T01:04:15.032Z,98122.25
2022-07-25T01:05:25.363Z,98120.88
2022-07-25T01:06:34.452Z,98120.06
2022-07-25T01:07:43.756Z,98122.02
2022-07-25T01:08:51.830Z,98122.16
2022-07-25T01:10:01.847Z,98124.56
2022-07-25T01:11:12.963Z,98125.52
2022-07-25T01:12:21.435Z,98125.61
2022-07-25T01:13:35.556Z,98128.89
2022-07-25T01:14:45.205Z,98129.37
2022-07-25T01:15:54.772Z,98129.65
2022-07-25T01:17:03.058Z,98130.36
2022-07-25T01:18:12.838Z,98129.91
2022-07-25T01:19:23.392Z,98123.46
2022-07-25T01:20:32.430Z,98126.31
2022-07-25T01:21:45.005Z,98124.34
2022-07-25T01:22:53.613Z,98125.89
2022-07-25T01:24:03.623Z,98127.29
2022-07-25T01:25:12.666Z,98125.90
2022-07-25T01:26:20.626Z,98123.80
2022-07-25T01:27:31.683Z,98119.70
2022-07-25T01:28:42.137Z,98123.55
2022-07-25T01:29:50.166Z,98123.66
2022-07-25T01:30:58.539Z,98126.02
2022-07-25T01:32:10.014Z,98122.70
2022-07-25T01:33:21.942Z,98122.47
2022-07-25T01:34:30.750Z,98121.46
2022-07-25T01:35:43.541Z,98122.98
2022-07-25T01:36:52.354Z,98125.27
2022-07-25T01:38:00.310Z,98125.84
2022-07-25T01:39:11.392Z,98123.06
2022-07-25T01:40:19.158Z,98124.19
2022-07-25T01:41:27.820Z,98123.36
2022-07-25T01:42:38.603Z,98120.30
2022-07-25T01:43:48.460Z,98120.63
2022-07-25T01:44:56.526Z,98117.77
2022-07-25T01:46:05.826Z,98117.46
2022-07-25T01:47:15.832Z,98113.23
2022-07-25T01:48:25.042Z,98114.70
2022-07-25T01:49:35.143Z,98120.30
2022-07-25T01:50:45.693Z,98117.77
2022-07-25T01:51:55.321Z,98122.45
2022-07-25T01:53:03.940Z,98123.42
2022-07-25T01:54:13.021Z,98124.39
2022-07-25T01:55:21.043Z,98130.73
2022-07-25T01:56:28.867Z,98133.27
2022-07-25T01:57:49.902Z,98132.13
2022-07-25T01:59:00.276Z,98137.36
2022-07-25T02:00:09.045Z,98142.86
2022-07-25T02:01:22.133Z,98146.34
2022-07-25T02:02:31.376Z,98150.98
2022-07-25T02:03:42.324Z,98158.14
2022-07-25T02:04:51.846Z,98157.93
2022-07-25T02:06:01.329Z,98159.22
2022-07-25T02:07:10.452Z,98162.52
2022-07-25T02:08:18.169Z,98168.16
2022-07-25T02:09:28.812Z,98168.83
2022-07-25T02:10:37.605Z,98181.06
2022-07-25T02:11:45.857Z,98180.88
2022-07-25T02:12:54.012Z,98182.00
2022-07-25T02:14:04.385Z,98185.89
2022-07-25T02:15:13.240Z,98189.20
2022-07-25T02:16:28.886Z,98194.38
2022-07-25T02:17:40.819Z,98194.98
2022-07-25T02:18:48.668Z,98199.63
2022-07-25T02:19:58.372Z,98201.48
2022-07-25T02:21:14.439Z,98204.81
2022-07-25T02:22:22.891Z,98208.98
2022-07-25T02:23:35.925Z,98212.63
2022-07-25T02:24:45.528Z,98214.06
2022-07-25T02:25:55.385Z,98216.27
2022-07-25T02:27:03.957Z,98222.45
2022-07-25T02:28:15.929Z,98216.44
2022-07-25T02:29:26.024Z,98221.22
2022-07-25T02:30:34.405Z,98225.31
2022-07-25T02:31:42.409Z,98221.23
2022-07-25T02:32:52.533Z,98229.62
2022-07-25T02:34:02.906Z,98233.31
2022-07-25T02:35:14.859Z,98236.58
2022-07-25T02:36:23.428Z,98239.35
2022-07-25T02:37:34.686Z,98241.25
2022-07-25T02:38:44.232Z,98247.61
2022-07-25T02:39:52.806Z,98248.24
2022-07-25T02:41:02.053Z,98250.24
2022-07-25T02:42:12.761Z,98253.88
2022-07-25T02:43:21.494Z,98253.31
2022-07-25T02:44:30.471Z,98256.20
2022-07-25T02:45:42.514Z,98260.51
2022-07-25T02:46:53.548Z,98258.39
2022-07-25T02:48:01.758Z,98264.05
2022-07-25T02:49:09.923Z,98266.92
2022-07-25T02:50:17.838Z,98272.34
2022-07-25T02:51:26.247Z,98276.28
2022-07-25T02:52:34.348Z,98274.31
2022-07-25T02:53:57.064Z,98274.75
2022-07-25T02:55:09.747Z,98273.97
2022-07-25T02:56:18.411Z,98276.44
2022-07-25T02:57:32.527Z,98276.48
2022-07-25T02:58:40.555Z,98278.84
2022-07-25T02:59:50.489Z,98278.75
2022-07-25T03:00:59.266Z,98281.24
2022-07-25T03:02:08.738Z,98281.73
2022-07-25T03:03:18.249Z,98283.08
2022-07-25T03:04:26.823Z,98284.81
2022-07-25T03:05:36.320Z,98289.04
2022-07-25T03:06:46.735Z,98293.48
2022-07-25T03:07:54.561Z,98294.10
2022-07-25T03:09:02.664Z,98298.09
2022-07-25T03:10:14.413Z,98298.01
2022-07-25T03:11:24.368Z,98297.20
2022-07-25T03:12:34.454Z,98297.66
2022-07-25T03:13:45.342Z,98301.27
2022-07-25T03:14:53.758Z,98302.88
2022-07-25T03:16:03.239Z,98305.16
2022-07-25T03:17:12.173Z,98308.71
2022-07-25T03:18:20.351Z,98312.91
2022-07-25T03:19:29.067Z,98318.19
2022-07-25T03:20:38.697Z,98319.98
2022-07-25T03:21:48.858Z,98323.46
2022-07-25T03:22:56.940Z,98329.35
2022-07-25T03:24:08.496Z,98329.64
2022-07-25T03:25:21.769Z,98325.23
2022-07-25T03:26:32.938Z,98324.62
2022-07-25T03:27:42.205Z,98329.75
2022-07-25T03:28:50.903Z,98332.04
2022-07-25T03:29:59.935Z,98333.96
2022-07-25T03:31:09.730Z,98337.23
2022-07-25T03:32:17.429Z,98339.11
2022-07-25T03:33:26.761Z,98341.92
2022-07-25T03:34:39.262Z,98348.25
2022-07-25T03:35:50.727Z,98354.75
2022-07-25T03:36:58.374Z,98362.80
2022-07-25T03:38:08.607Z,98368.64
2022-07-25T03:39:18.708Z,98373.48
2022-07-25T03:40:26.786Z,98375.14
2022-07-25T03:41:35.820Z,98377.34
2022-07-25T03:42:46.951Z,98378.19
2022-07-25T03:43:56.797Z,98377.18
2022-07-25T03:45:05.423Z,98381.93
2022-07-25T03:46:15.768Z,98387.10
2022-07-25T03:47:26.033Z,98389.66
2022-07-25T03:48:34.095Z,98393.94
2022-07-25T03:49:45.311Z,98394.84
2022-07-25T03:50:53.925Z,98402.11
2022-07-25T03:52:02.947Z,98400.20
2022-07-25T03:53:11.600Z,98405.77
2022-07-25T03:54:19.737Z,98405.77
2022-07-25T03:55:28.192Z,98406.59
2022-07-25T03:56:43.920Z,98410.73
2022-07-25T03:57:55.008Z,98411.17
2022-07-25T03:59:02.803Z,98410.11
2022-07-25T04:00:12.416Z,98408.61
2022-07-25T04:01:22.959Z,98411.77
2022-07-25T04:02:33.362Z,98414.66
2022-07-25T04:03:42.017Z,98416.26
2022-07-25T04:04:54.364Z,98413.44
2022-07-25T04:06:08.300Z,98419.67
2022-07-25T04:07:16.933Z,98417.37
2022-07-25T04:08:25.272Z,98421.20
2022-07-25T04:09:35.796Z,98423.95
2022-07-25T04:10:45.661Z,98427.89
2022-07-25T04:11:56.736Z,98430.63
2022-07-25T04:13:05.445Z,98437.39
2022-07-25T04:14:15.834Z,98432.71
2022-07-25T04:15:23.832Z,98437.13
2022-07-25T04:16:32.257Z,98438.71
2022-07-25T04:17:46.335Z,98444.85
2022-07-25T04:18:55.358Z,98443.58
2022-07-25T04:20:07.720Z,98444.41
2022-07-25T04:21:18.454Z,98447.05
2022-07-25T04:22:26.678Z,98446.51
2022-07-25T04:23:36.036Z,98447.04
2022-07-25T04:24:46.478Z,98448.48
2022-07-25T04:25:56.243Z,98447.95
2022-07-25T04:27:04.938Z,98449.59
2022-07-25T04:28:13.480Z,98452.78
2022-07-25T04:29:21.559Z,98456.23
2022-07-25T04:30:30.102Z,98455.25
2022-07-25T04:31:38.581Z,98462.86
2022-07-25T04:32:48.431Z,98462.97
2022-07-25T04:33:57.198Z,98464.66
2022-07-25T04:35:05.187Z,98467.42
2022-07-25T04:36:16.119Z,98465.03
2022-07-25T04:37:25.277Z,98464.06
2022-07-25T04:38:33.405Z,98466.18
2022-07-25T04:39:44.237Z,98467.17
2022-07-25T04:40:52.879Z,98469.86
2022-07-25T04:42:01.275Z,98475.11
2022-07-25T04:43:10.202Z,98472.66
2022-07-25T04:44:19.195Z,98472.73
2022-07-25T04:45:28.765Z,98471.02
2022-07-25T04:46:37.718Z,98468.80
2022-07-25T04:47:46.573Z,98471.82
2022-07-25T04:48:56.169Z,98469.05
2022-07-25T04:50:05.966Z,98467.55
2022-07-25T04:51:14.134Z,98471.36
2022-07-25T04:52:21.954Z,98471.77
2022-07-25T04:53:32.275Z,98470.98
2022-07-25T04:54:42.814Z,98474.02
2022-07-25T04:55:52.088Z,98473.36
2022-07-25T04:57:00.552Z,98478.06
2022-07-25T04:58:12.341Z,98477.17
2022-07-25T04:59:23.143Z,98475.13
2022-07-25T05:00:31.815Z,98479.41
2022-07-25T05:01:46.724Z,98477.96
2022-07-25T05:02:56.271Z,98475.05
2022-07-25T05:04:06.680Z,98476.58
2022-07-25T05:05:21.751Z,98477.50
2022-07-25T05:06:32.183Z,98480.13
2022-07-25T05:07:40.441Z,98484.58
2022-07-25T05:08:49.305Z,98485.11
2022-07-25T05:09:59.989Z,98483.16
2022-07-25T05:11:09.192Z,98481.00
2022-07-25T05:12:18.209Z,98484.23
2022-07-25T05:13:26.718Z,98481.50
2022-07-25T05:14:36.891Z,98482.33
2022-07-25T05:15:48.052Z,98486.05
2022-07-25T05:16:56.761Z,98487.66
2022-07-25T05:18:06.493Z,98483.27
2022-07-25T05:19:16.736Z,98488.73
2022-07-25T05:20:25.054Z,98487.05
2022-07-25T05:21:35.405Z,98483.08
2022-07-25T05:22:46.141Z,98485.44
2022-07-25T05:23:56.396Z,98485.45
2022-07-25T05:25:06.943Z,98486.29
2022-07-25T05:26:15.025Z,98488.23
2022-07-25T05:27:24.964Z,98487.27
2022-07-25T05:28:33.396Z,98489.14
2022-07-25T05:29:44.141Z,98487.33
2022-07-25T05:30:55.290Z,98490.80
2022-07-25T05:32:03.751Z,98492.90
2022-07-25T05:33:12.712Z,98494.61
2022-07-25T05:34:20.909Z,98492.23
2022-07-25T05:35:28.711Z,98495.40
2022-07-25T05:36:37.884Z,98497.85
2022-07-25T05:37:47.123Z,98497.30
2022-07-25T05:38:56.534Z,98499.08
2022-07-25T05:40:06.492Z,98500.53
2022-07-25T05:41:18.410Z,98500.39
2022-07-25T05:42:26.395Z,98501.67
2022-07-25T05:43:37.381Z,98500.94
2022-07-25T05:44:47.162Z,98498.80
2022-07-25T05:45:55.221Z,98499.99
2022-07-25T05:47:03.407Z,98498.44
2022-07-25T05:48:14.779Z,98501.56
2022-07-25T05:49:26.189Z,98503.59
2022-07-25T05:50:43.147Z,98505.67
2022-07-25T05:51:54.428Z,98501.95
2022-07-25T05:53:03.608Z,98503.09
2022-07-25T05:54:12.248Z,98501.34
2022-07-25T05:55:23.683Z,98504.94
2022-07-25T05:56:32.063Z,98504.51
2022-07-25T05:57:40.561Z,98503.74
2022-07-25T05:58:49.619Z,98501.66
2022-07-25T05:59:59.745Z,98500.48
2022-07-25T06:01:09.506Z,98497.25
2022-07-25T06:02:18.625Z,98496.75
2022-07-25T06:03:27.909Z,98493.93
2022-07-25T06:04:36.887Z,98494.50
2022-07-25T06:05:49.440Z,98494.42
2022-07-25T06:06:57.616Z,98496.46
2022-07-25T06:08:05.521Z,98494.33
2022-07-25T06:09:17.505Z,98491.52
2022-07-25T06:10:26.485Z,98493.19
2022-07-25T06:11:36.844Z,98492.70
2022-07-25T06:13:00.561Z,98492.59
2022-07-25T06:14:09.514Z,98494.55
2022-07-25T06:15:22.775Z,98495.71
2022-07-25T06:16:36.501Z,98496.77
2022-07-25T06:17:47.078Z,98498.14
2022-07-25T06:18:56.931Z,98499.58
2022-07-25T06:20:06.300Z,98499.19
2022-07-25T06:21:16.246Z,98500.76
2022-07-25T06:22:25.079Z,98498.44
2022-07-25T06:23:36.083Z,98498.27
2022-07-25T06:24:46.219Z,98496.68
2022-07-25T06:25:56.776Z,98495.39
2022-07-25T06:27:05.788Z,98499.17
2022-07-25T06:28:18.269Z,98501.78
2022-07-25T06:29:26.513Z,98496.47
2022-07-25T06:30:36.992Z,98498.67
2022-07-25T06:31:47.559Z,98498.98
2022-07-25T06:32:57.404Z,98499.39
2022-07-25T06:34:08.369Z,98495.63
2022-07-25T06:35:20.242Z,98500.67
2022-07-25T06:36:32.516Z,98502.41
2022-07-25T06:37:49.491Z,98500.77
2022-07-25T06:38:58.393Z,98499.31
2022-07-25T06:40:07.525Z,98496.28
2022-07-25T06:41:19.723Z,98495.10
2022-07-25T06:42:27.552Z,98496.09
2022-07-25T06:43:37.027Z,98494.08
2022-07-25T06:44:45.715Z,98497.92
2022-07-25T06:45:54.937Z,98494.10
2022-07-25T06:47:04.200Z,98496.30
2022-07-25T06:48:15.322Z,98500.80
2022-07-25T06:49:26.371Z,98500.15
2022-07-25T06:50:35.370Z,98503.53
2022-07-25T06:51:49.118Z,98506.06
2022-07-25T06:52:57.603Z,98503.66
2022-07-25T06:54:06.997Z,98503.46
2022-07-25T06:55:18.182Z,98503.38
2022-07-25T06:56:26.251Z,98498.69
2022-07-25T06:57:37.859Z,98496.80
2022-07-25T06:58:47.482Z,98494.64
2022-07-25T06:59:57.231Z,98495.33
2022-07-25T07:01:05.593Z,98496.53
2022-07-25T07:02:17.485Z,98496.04
2022-07-25T07:03:25.583Z,98495.67
2022-07-25T07:04:34.266Z,98495.97
2022-07-25T07:05:45.034Z,98497.04
2022-07-25T07:06:59.742Z,98495.30
2022-07-25T07:08:07.919Z,98493.16
2022-07-25T07:09:15.780Z,98492.64
2022-07-25T07:10:24.128Z,98492.67
2022-07-25T07:11:35.894Z,98494.23
2022-07-25T07:12:47.994Z,98496.46
2022-07-25T07:13:58.420Z,98495.19
2022-07-25T07:15:07.752Z,98495.98
2022-07-25T07:16:17.369Z,98499.77
2022-07-25T07:17:26.731Z,98497.55
2022-07-25T07:18:35.199Z,98499.02
2022-07-25T07:19:47.588Z,98501.34
2022-07-25T07:20:56.656Z,98499.91
2022-07-25T07:22:04.711Z,98500.34
2022-07-25T07:23:16.662Z,98500.42
2022-07-25T07:24:26.413Z,98498.34
2022-07-25T07:25:36.136Z,98497.34
2022-07-25T07:26:46.689Z,98496.75
2022-07-25T07:27:57.343Z,98496.73
2022-07-25T07:29:06.466Z,98492.28
2022-07-25T07:30:24.062Z,98493.39
2022-07-25T07:31:38.010Z,98492.29
2022-07-25T07:32:47.925Z,98491.73
2022-07-25T07:33:57.572Z,98493.38
2022-07-25T07:35:06.999Z,98498.98
2022-07-25T07:36:17.201Z,98497.66
2022-07-25T07:37:25.962Z,98496.66
2022-07-25T07:38:34.185Z,98493.61
2022-07-25T07:39:44.774Z,98490.80
2022-07-25T07:40:55.185Z,98492.35
2022-07-25T07:42:03.379Z,98491.05
2022-07-25T07:43:12.721Z,98492.15
2022-07-25T07:44:22.181Z,98490.57
2022-07-25T07:45:33.134Z,98487.77
2022-07-25T07:46:41.231Z,98490.39
2022-07-25T07:47:50.512Z,98488.05
2022-07-25T07:48:59.799Z,98484.56
2022-07-25T07:50:10.596Z,98479.73
2022-07-25T07:51:20.971Z,98477.66
2022-07-25T07:52:28.902Z,98477.09
2022-07-25T07:53:57.310Z,98476.51
2022-07-25T07:55:25.334Z,98474.56
2022-07-25T07:56:33.934Z,98479.06
2022-07-25T07:57:45.095Z,98478.98
2022-07-25T07:58:55.310Z,98475.91
2022-07-25T08:00:07.058Z,98474.19
2022-07-25T08:01:20.364Z,98476.86
2022-07-25T08:02:28.529Z,98474.77
2022-07-25T08:03:39.874Z,98473.63
2022-07-25T08:04:50.145Z,98472.42
2022-07-25T08:05:59.918Z,98477.60
2022-07-25T08:07:07.545Z,98481.48
2022-07-25T08:08:20.253Z,98482.95
2022-07-25T08:09:30.052Z,98486.52
2022-07-25T08:10:39.845Z,98490.34
2022-07-25T08:11:50.172Z,98492.89
2022-07-25T08:12:59.998Z,98491.76
2022-07-25T08:14:11.023Z,98491.27
2022-07-25T08:15:20.221Z,98490.13
2022-07-25T08:16:28.825Z,98491.38
2022-07-25T08:17:38.493Z,98491.61
2022-07-25T08:18:47.608Z,98488.14
2022-07-25T08:20:05.595Z,98487.50
2022-07-25T08:21:26.706Z,98483.42
2022-07-25T08:22:43.552Z,98483.61
2022-07-25T08:23:56.373Z,98482.09
2022-07-25T08:25:04.896Z,98481.52
2022-07-25T08:26:13.263Z,98479.13
2022-07-25T08:27:22.267Z,98477.56
2022-07-25T08:28:31.246Z,98480.20
2022-07-25T08:29:39.443Z,98479.86
2022-07-25T08:30:49.850Z,98476.86
2022-07-25T08:32:00.789Z,98477.30
2022-07-25T08:33:12.735Z,98478.27
2022-07-25T08:34:24.211Z,98477.91
2022-07-25T08:35:34.377Z,98477.41
2022-07-25T08:36:43.029Z,98475.80
2022-07-25T08:37:51.351Z,98478.38
2022-07-25T08:38:59.630Z,98480.69
2022-07-25T08:40:10.279Z,98474.05
2022-07-25T08:41:19.839Z,98475.10
2022-07-25T08:42:35.366Z,98474.11
2022-07-25T08:43:44.198Z,98472.57
2022-07-25T08:45:06.377Z,98470.55
2022-07-25T08:46:18.441Z,98468.68
2022-07-25T08:47:27.580Z,98465.95
2022-07-25T08:48:35.644Z,98466.23
2022-07-25T08:49:46.475Z,98462.23
2022-07-25T08:50:58.789Z,98458.13
2022-07-25T08:52:07.171Z,98452.95
2022-07-25T08:53:38.916Z,98454.83
2022-07-25T08:54:49.473Z,98454.25
2022-07-25T08:55:57.689Z,98456.20
2022-07-25T08:57:05.842Z,98456.19
2022-07-25T08:58:14.536Z,98454.17
2022-07-25T08:59:24.853Z,98454.86
2022-07-25T09:00:33.594Z,98456.00
2022-07-25T09:01:43.015Z,98453.15
2022-07-25T09:03:01.929Z,98451.19
2022-07-25T09:04:13.270Z,98448.58
2022-07-25T09:05:22.221Z,98449.39
2022-07-25T09:06:30.003Z,98450.47
2022-07-25T09:07:43.161Z,98449.55
2022-07-25T09:09:01.772Z,98449.69
2022-07-25T09:10:26.176Z,98455.08
2022-07-25T09:11:38.840Z,98451.16
2022-07-25T09:13:05.411Z,98452.24
2022-07-25T09:14:16.395Z,98450.44
2022-07-25T09:15:39.381Z,98446.77
2022-07-25T09:16:49.812Z,98447.75
2022-07-25T09:18:02.359Z,98448.42
2022-07-25T09:19:12.748Z,98448.77
2022-07-25T09:20:26.040Z,98448.90
2022-07-25T09:21:37.020Z,98445.23
2022-07-25T09:22:48.022Z,98441.58
2022-07-25T09:23:57.656Z,98440.20
2022-07-25T09:25:05.853Z,98437.35
2022-07-25T09:26:16.243Z,98439.49
2022-07-25T09:27:26.948Z,98437.01
2022-07-25T09:28:35.186Z,98438.63
2022-07-25T09:29:47.234Z,98436.20
2022-07-25T09:31:03.694Z,98437.69
2022-07-25T09:32:22.635Z,98433.98
2022-07-25T09:33:30.947Z,98434.05
2022-07-25T09:34:41.624Z,98432.55
2022-07-25T09:35:53.486Z,98433.80
2022-07-25T09:37:04.303Z,98435.98
2022-07-25T09:38:16.224Z,98436.55
2022-07-25T09:39:43.501Z,98437.29
2022-07-25T09:41:03.228Z,98437.43
2022-07-25T09:42:19.018Z,98441.02
2022-07-25T09:43:47.930Z,98440.11
2022-07-25T09:45:04.873Z,98441.83
2022-07-25T09:46:14.176Z,98444.47
2022-07-25T09:47:22.624Z,98441.78
2022-07-25T09:48:30.811Z,98439.02
2022-07-25T09:49:46.875Z,98440.15
2022-07-25T09:50:57.566Z,98439.54
2022-07-25T09:52:05.766Z,98440.67
2022-07-25T09:53:13.857Z,98439.82
2022-07-25T09:54:27.735Z,98439.29
2022-07-25T09:55:37.340Z,98438.33
2022-07-25T09:56:47.499Z,98437.11
2022-07-25T09:57:57.455Z,98438.05
2022-07-25T09:59:06.073Z,98442.46
2022-07-25T10:00:19.513Z,98440.17
2022-07-25T10:01:36.794Z,98444.95
2022-07-25T10:02:51.970Z,98441.85
2022-07-25T10:04:07.842Z,98443.23
2022-07-25T10:05:22.016Z,98442.30
2022-07-25T10:06:47.889Z,98443.61
2022-07-25T10:07:58.584Z,98442.27
2022-07-25T10:09:12.495Z,98442.33
2022-07-25T10:10:45.485Z,98441.14
2022-07-25T10:12:12.343Z,98440.89
2022-07-25T10:13:33.342Z,98435.58
2022-07-25T10:14:41.333Z,98431.52
2022-07-25T10:15:54.346Z,98431.30
2022-07-25T10:17:03.570Z,98431.40
2022-07-25T10:18:20.587Z,98431.39
2022-07-25T10:19:51.821Z,98435.20
2022-07-25T10:21:25.763Z,98433.52
2022-07-25T10:22:58.549Z,98437.63
2022-07-25T10:24:10.995Z,98440.19
2022-07-25T10:25:21.762Z,98444.10
2022-07-25T10:26:29.633Z,98446.42
2022-07-25T10:27:54.530Z,98450.31
2022-07-25T10:29:08.907Z,98446.98
2022-07-25T10:30:25.133Z,98444.28
2022-07-25T10:31:39.961Z,98437.83
2022-07-25T10:33:23.073Z,98437.12
2022-07-25T10:34:33.055Z,98438.92
2022-07-25T10:35:43.951Z,98434.30
2022-07-25T10:36:53.766Z,98431.56
2022-07-25T10:38:05.709Z,98435.29
2022-07-25T10:39:15.233Z,98430.70
2022-07-25T10:40:45.556Z,98432.02
2022-07-25T10:41:57.545Z,98428.83
2022-07-25T10:43:23.381Z,98427.11
2022-07-25T10:44:41.597Z,98427.45
2022-07-25T10:45:59.352Z,98428.59
2022-07-25T10:47:16.012Z,98429.55
2022-07-25T10:48:34.241Z,98430.26
2022-07-25T10:51:20.898Z,98430.39
2022-07-25T10:52:31.744Z,98432.90
2022-07-25T10:53:48.845Z,98428.05
2022-07-25T10:55:00.626Z,98426.92
2022-07-25T10:56:19.464Z,98424.95
2022-07-25T10:57:31.753Z,98423.32
2022-07-25T10:58:51.479Z,98423.70
2022-07-25T11:00:09.484Z,98424.45
2022-07-25T11:01:28.903Z,98421.84
2022-07-25T11:02:38.111Z,98421.06
2022-07-25T11:03:51.542Z,98419.60
2022-07-25T11:05:04.377Z,98419.42
2022-07-25T11:06:16.803Z,98415.64
2022-07-25T11:07:30.352Z,98415.21
2022-07-25T11:08:38.891Z,98416.02
2022-07-25T11:09:47.079Z,98419.02
2022-07-25T11:10:57.488Z,98417.80
2022-07-25T11:12:06.661Z,98418.35
2022-07-25T11:13:17.403Z,98420.93
2022-07-25T11:14:34.565Z,98419.23
2022-07-25T11:15:43.085Z,98420.49
2022-07-25T11:16:52.653Z,98422.73
2022-07-25T11:18:04.279Z,98423.17
2022-07-25T11:19:31.665Z,98428.46
2022-07-25T11:20:39.923Z,98428.02
2022-07-25T11:21:56.404Z,98427.40
2022-07-25T11:23:05.058Z,98424.52
2022-07-25T11:24:15.496Z,98429.15
2022-07-25T11:25:24.756Z,98429.23
2022-07-25T11:26:33.514Z,98431.54
2022-07-25T11:27:41.973Z,98428.65
2022-07-25T11:28:52.871Z,98430.79
2022-07-25T11:30:18.419Z,98432.16
2022-07-25T11:31:29.207Z,98428.95
2022-07-25T11:32:55.593Z,98430.18
2022-07-25T11:34:05.926Z,98429.92
2022-07-25T11:35:14.662Z,98429.86
2022-07-25T11:36:25.377Z,98429.42
2022-07-25T11:37:38.290Z,98432.12
2022-07-25T11:38:51.023Z,98434.52
2022-07-25T11:40:00.930Z,98433.86
2022-07-25T11:41:09.289Z,98435.02
2022-07-25T11:42:18.875Z,98436.45
2022-07-25T11:43:28.878Z,98435.75
2022-07-25T11:44:45.638Z,98433.83
2022-07-25T11:46:01.670Z,98434.17
2022-07-25T11:47:27.053Z,98437.61
2022-07-25T11:48:44.609Z,98434.52
2022-07-25T11:49:54.385Z,98439.11
2022-07-25T11:51:18.572Z,98440.12
2022-07-25T11:52:39.693Z,98438.17
2022-07-25T11:53:51.421Z,98437.81
2022-07-25T11:55:06.850Z,98433.04
2022-07-25T11:56:42.634Z,98431.66
2022-07-25T11:57:48.253Z,98431.55
2022-07-25T11:59:02.931Z,98431.23
2022-07-25T12:00:28.570Z,98435.23
2022-07-25T12:01:43.955Z,98438.92
2022-07-25T12:02:55.139Z,98445.27
2022-07-25T12:04:22.989Z,98446.01
2022-07-25T12:05:36.254Z,98451.36
2022-07-25T12:06:47.243Z,98453.67
2022-07-25T12:07:58.427Z,98454.39
2022-07-25T12:09:21.739Z,98455.48
2022-07-25T12:10:37.243Z,98461.25
2022-07-25T12:11:48.798Z,98462.09
2022-07-25T12:13:03.467Z,98464.64
2022-07-25T12:14:11.956Z,98463.50
2022-07-25T12:15:23.048Z,98463.02
2022-07-25T12:16:31.411Z,98463.14
2022-07-25T12:17:40.099Z,98460.61
2022-07-25T12:18:48.658Z,98460.91
2022-07-25T12:19:59.213Z,98459.66
2022-07-25T12:21:07.385Z,98464.02
2022-07-25T12:22:18.811Z,98464.91
2022-07-25T12:23:28.689Z,98465.42
2022-07-25T12:24:36.962Z,98470.48
2022-07-25T12:25:48.244Z,98470.36
2022-07-25T12:26:58.655Z,98471.08
2022-07-25T12:28:09.725Z,98470.25
2022-07-25T12:29:17.629Z,98474.63
2022-07-25T12:30:31.339Z,98474.21
2022-07-25T12:31:41.757Z,98477.07
2022-07-25T12:32:50.171Z,98471.48
2022-07-25T12:33:59.935Z,98471.92
2022-07-25T12:35:08.508Z,98474.65
2022-07-25T12:36:18.808Z,98475.39
2022-07-25T12:37:30.703Z,98478.45
2022-07-25T12:38:39.737Z,98481.61
2022-07-25T12:39:49.272Z,98485.25
2022-07-25T12:40:57.560Z,98489.27
2022-07-25T12:42:08.385Z,98489.52
2022-07-25T12:43:17.085Z,98490.80
2022-07-25T12:44:28.318Z,98489.66
2022-07-25T12:45:36.121Z,98486.73
2022-07-25T12:46:49.309Z,98492.44
2022-07-25T12:47:59.114Z,98500.96
2022-07-25T12:49:07.344Z,98499.14
2022-07-25T12:50:18.120Z,98501.63
2022-07-25T12:51:26.003Z,98502.61
2022-07-25T12:52:34.064Z,98505.93
2022-07-25T12:53:44.188Z,98501.42
2022-07-25T12:54:52.926Z,98500.27
2022-07-25T12:56:03.054Z,98499.20
2022-07-25T12:57:12.007Z,98505.04
2022-07-25T12:58:21.045Z,98504.10
2022-07-25T12:59:30.563Z,98503.26
2022-07-25T13:00:41.943Z,98507.85
2022-07-25T13:01:51.860Z,98507.86
2022-07-25T13:03:00.796Z,98510.88
2022-07-25T13:04:14.052Z,98512.72
2022-07-25T13:05:22.371Z,98512.05
2022-07-25T13:06:31.831Z,98510.20
2022-07-25T13:07:42.835Z,98513.37
2022-07-25T13:08:54.350Z,98513.49
2022-07-25T13:10:07.433Z,98516.16
2022-07-25T13:11:16.077Z,98515.73
2022-07-25T13:12:25.976Z,98515.55
2022-07-25T13:13:36.069Z,98518.88
2022-07-25T13:14:44.390Z,98518.33
2022-07-25T13:15:56.449Z,98520.52
2022-07-25T13:17:06.935Z,98516.48
2022-07-25T13:18:16.839Z,98521.83
2022-07-25T13:19:28.408Z,98520.30
2022-07-25T13:20:38.824Z,98521.23
2022-07-25T13:21:48.860Z,98520.19
2022-07-25T13:22:58.393Z,98520.06
2022-07-25T13:24:08.954Z,98517.04
2022-07-25T13:25:17.111Z,98518.65
2022-07-25T13:26:25.163Z,98520.20
2022-07-25T13:27:33.276Z,98517.95
2022-07-25T13:28:41.006Z,98518.30
2022-07-25T13:29:56.633Z,98516.70
2022-07-25T13:31:08.260Z,98519.58
2022-07-25T13:32:16.758Z,98516.73
2022-07-25T13:33:28.869Z,98515.24
2022-07-25T13:34:37.174Z,98517.66
2022-07-25T13:35:48.330Z,98518.27
2022-07-25T13:36:59.089Z,98522.36
2022-07-25T13:38:10.860Z,98522.46
2022-07-25T13:39:19.529Z,98519.09
2022-07-25T13:40:29.685Z,98523.30
2022-07-25T13:41:38.624Z,98522.68
2022-07-25T13:42:46.510Z,98520.71
2022-07-25T13:44:00.025Z,98515.00
2022-07-25T13:45:08.907Z,98508.64
2022-07-25T13:46:20.446Z,98507.36
2022-07-25T13:47:32.152Z,98506.27
2022-07-25T13:48:40.587Z,98507.98
2022-07-25T13:49:48.954Z,98510.02
2022-07-25T13:50:58.542Z,98517.63
2022-07-25T13:52:09.413Z,98517.42
2022-07-25T13:53:18.692Z,98514.89
2022-07-25T13:54:28.281Z,98518.48
2022-07-25T13:55:36.551Z,98517.94
2022-07-25T13:56:44.845Z,98520.06